Time;durP1;ratioP1;P1;durP2;ratioP2;P2;SDS_P1;SDS_P2;PMS_P1;PMS_P2;Temp;Humidity;BMP_temperature;BMP_pressure;BME280_temperature;BME280_humidity;BME280_pressure;Samples;Min_cycle;Max_cycle;Signal;HPM_P1;HPM_P2
2023/06/11 00:00:59;;;;;;;18.60;7.97;;;18.50;99.90;;;;;;5042695;28;20544;-64
2023/06/11 00:03:24;;;;;;;16.55;8.80;;;18.50;99.90;;;;;;5042624;28;20037;-65
2023/06/11 00:05:51;;;;;;;15.63;8.00;;;18.50;99.90;;;;;;5041212;28;20585;-63
2023/06/11 00:08:18;;;;;;;19.77;8.05;;;18.50;99.90;;;;;;5042487;28;20036;-66
2023/06/11 00:10:44;;;;;;;16.92;8.77;;;18.60;99.90;;;;;;5043374;28;20037;-65
2023/06/11 00:13:09;;;;;;;15.55;7.65;;;18.60;99.90;;;;;;5043018;28;20048;-64
2023/06/11 00:15:35;;;;;;;15.98;8.52;;;18.60;99.90;;;;;;5042279;28;20044;-66
2023/06/11 00:18:01;;;;;;;12.00;7.93;;;18.60;99.90;;;;;;5042797;28;20048;-64
2023/06/11 00:20:27;;;;;;;13.57;8.10;;;18.50;99.90;;;;;;5044182;28;20473;-65
2023/06/11 00:22:53;;;;;;;13.68;7.93;;;18.50;99.90;;;;;;5045638;28;20044;-63
2023/06/11 00:25:18;;;;;;;14.25;8.23;;;18.50;99.90;;;;;;5046285;28;20114;-65
2023/06/11 00:27:44;;;;;;;15.90;7.55;;;18.50;99.90;;;;;;5046814;28;20033;-66
2023/06/11 00:30:11;;;;;;;15.73;8.52;;;18.50;99.90;;;;;;5047222;28;20118;-65
2023/06/11 00:32:37;;;;;;;13.13;7.53;;;18.50;99.90;;;;;;5046062;28;20407;-65
2023/06/11 00:35:08;;;;;;;14.80;8.00;;;18.50;99.90;;;;;;5046150;28;20041;-66
2023/06/11 00:37:35;;;;;;;12.85;7.68;;;18.50;99.90;;;;;;5044579;28;20055;-65
2023/06/11 00:40:01;;;;;;;12.70;7.85;;;18.50;99.90;;;;;;5046615;28;20041;-66
2023/06/11 00:42:27;;;;;;;16.88;8.25;;;18.50;99.90;;;;;;5046504;28;20851;-65
2023/06/11 00:44:54;;;;;;;18.08;8.27;;;18.50;99.90;;;;;;5046317;28;20106;-66
2023/06/11 00:47:20;;;;;;;14.10;8.25;;;18.40;99.90;;;;;;5046076;28;20055;-66
2023/06/11 00:49:46;;;;;;;14.77;8.35;;;18.40;99.90;;;;;;5029913;28;20040;-66
2023/06/11 00:52:15;;;;;;;11.60;7.97;;;18.40;99.90;;;;;;5043866;28;20128;-67
2023/06/11 00:54:42;;;;;;;15.50;8.73;;;18.40;99.90;;;;;;5046072;28;20041;-66
2023/06/11 00:57:07;;;;;;;13.45;8.65;;;18.40;99.90;;;;;;5046659;28;20508;-66
2023/06/11 00:59:38;;;;;;;14.45;8.27;;;18.30;99.90;;;;;;5046361;28;20092;-67
2023/06/11 01:02:25;;;;;;;19.52;8.90;;;18.30;99.90;;;;;;5045715;28;20041;-67
2023/06/11 01:04:56;;;;;;;12.20;8.40;;;18.20;99.90;;;;;;5045671;28;20056;-65
2023/06/11 01:07:23;;;;;;;13.13;8.60;;;18.10;99.90;;;;;;5044802;28;20531;-64
2023/06/11 01:09:49;;;;;;;13.07;8.68;;;18.10;99.90;;;;;;5045974;28;20045;-66
2023/06/11 01:12:15;;;;;;;15.27;8.90;;;18.10;99.90;;;;;;5045982;28;20108;-66
2023/06/11 01:14:42;;;;;;;13.63;8.98;;;18.00;99.90;;;;;;5062453;28;20783;-66
2023/06/11 01:17:23;;;;;;;12.55;9.05;;;18.00;99.90;;;;;;5045340;28;20106;-66
2023/06/11 01:20:02;;;;;;;12.10;8.20;;;17.90;99.90;;;;;;5045995;28;20087;-66
2023/06/11 01:22:36;;;;;;;14.50;8.77;;;17.90;99.90;;;;;;5063469;28;20222;-66
2023/06/11 01:25:30;;;;;;;14.73;8.50;;;17.90;99.90;;;;;;5064583;28;20083;-65
2023/06/11 01:28:12;;;;;;;16.48;9.38;;;17.80;99.90;;;;;;5045606;28;20079;-64
2023/06/11 01:30:41;;;;;;;15.45;9.13;;;17.80;99.90;;;;;;5045144;28;20036;-64
2023/06/11 01:33:08;;;;;;;15.10;9.23;;;17.80;99.90;;;;;;5045540;28;20044;-64
2023/06/11 01:35:34;;;;;;;16.27;9.38;;;17.80;99.90;;;;;;5045070;28;20049;-64
2023/06/11 01:38:00;;;;;;;15.30;8.88;;;17.80;99.90;;;;;;5048239;28;20055;-64
2023/06/11 01:40:27;;;;;;;14.80;8.70;;;17.80;99.90;;;;;;5059851;28;20077;-67
2023/06/11 01:42:54;;;;;;;14.20;8.77;;;17.80;99.90;;;;;;5045411;28;20090;-65
2023/06/11 01:45:21;;;;;;;13.70;9.05;;;17.90;99.90;;;;;;5044902;28;20043;-63
2023/06/11 01:47:48;;;;;;;14.80;10.40;;;17.90;99.90;;;;;;5045287;28;20047;-65
2023/06/11 01:50:18;;;;;;;15.93;10.13;;;17.90;99.90;;;;;;5045666;28;20091;-62
2023/06/11 01:52:45;;;;;;;15.23;10.05;;;17.90;99.90;;;;;;5043835;28;20045;-64
2023/06/11 01:55:11;;;;;;;15.52;10.52;;;17.90;99.90;;;;;;5059394;28;20461;-62
2023/06/11 01:57:37;;;;;;;16.77;10.45;;;17.90;99.90;;;;;;5064940;28;20048;-63
2023/06/11 02:00:10;;;;;;;15.93;9.98;;;17.80;99.90;;;;;;5059062;28;20052;-63
2023/06/11 02:02:36;;;;;;;17.27;10.70;;;17.80;99.90;;;;;;5044380;28;20720;-64
2023/06/11 02:05:02;;;;;;;17.90;10.07;;;17.80;99.90;;;;;;5044724;28;20055;-63
2023/06/11 02:07:28;;;;;;;14.88;10.45;;;17.80;99.90;;;;;;5042600;28;20049;-64
2023/06/11 02:09:54;;;;;;;20.42;10.23;;;17.70;99.90;;;;;;5045033;28;20076;-65
2023/06/11 02:12:19;;;;;;;14.38;10.32;;;17.70;99.90;;;;;;5044999;28;20037;-63
2023/06/11 02:14:45;;;;;;;12.18;9.32;;;17.70;99.90;;;;;;5044286;28;20052;-64
2023/06/11 02:17:11;;;;;;;18.58;10.38;;;17.70;99.90;;;;;;5028249;28;20040;-64
2023/06/11 02:19:37;;;;;;;16.92;11.63;;;17.60;99.90;;;;;;5045042;28;20025;-66
2023/06/11 02:22:03;;;;;;;16.25;11.27;;;17.60;99.90;;;;;;5042324;28;20044;-63
2023/06/11 02:24:28;;;;;;;16.95;10.65;;;17.60;99.90;;;;;;5044268;28;20069;-62
2023/06/11 02:26:54;;;;;;;15.45;10.43;;;17.60;99.90;;;;;;5044901;28;20052;-66
2023/06/11 02:29:19;;;;;;;16.67;10.70;;;17.60;99.90;;;;;;5044620;28;20080;-63
2023/06/11 02:31:45;;;;;;;14.00;10.68;;;17.60;99.90;;;;;;5044421;28;20041;-63
2023/06/11 02:34:11;;;;;;;16.08;11.73;;;17.60;99.90;;;;;;5044356;28;20107;-64
2023/06/11 02:36:36;;;;;;;18.33;10.73;;;17.60;99.90;;;;;;5026446;28;20055;-64
2023/06/11 02:39:03;;;;;;;13.63;11.02;;;17.60;99.90;;;;;;5043908;28;20041;-64
2023/06/11 02:41:29;;;;;;;15.70;11.43;;;17.50;99.90;;;;;;5053474;28;20044;-63
2023/06/11 02:43:54;;;;;;;13.50;10.82;;;17.50;99.90;;;;;;5046629;28;20036;-62
2023/06/11 02:46:20;;;;;;;13.70;10.90;;;17.60;99.90;;;;;;5029917;28;20532;-64
2023/06/11 02:48:45;;;;;;;14.80;9.90;;;17.50;99.90;;;;;;5043904;28;20084;-62
2023/06/11 02:51:11;;;;;;;14.32;10.93;;;17.50;99.90;;;;;;5042634;28;20041;-65
2023/06/11 02:53:37;;;;;;;17.10;10.88;;;17.50;99.90;;;;;;5026674;28;20041;-64
2023/06/11 02:56:02;;;;;;;15.73;10.50;;;17.50;99.90;;;;;;5043949;28;20048;-64
2023/06/11 02:58:28;;;;;;;18.40;10.73;;;17.50;99.90;;;;;;5043573;28;20146;-65
2023/06/11 03:00:54;;;;;;;17.55;11.80;;;17.50;99.90;;;;;;5044105;28;20510;-65
2023/06/11 03:03:20;;;;;;;16.08;12.20;;;17.50;99.90;;;;;;5043436;28;20041;-66
2023/06/11 03:05:45;;;;;;;18.92;11.88;;;17.50;99.90;;;;;;5042463;28;20040;-65
2023/06/11 03:08:11;;;;;;;17.15;12.15;;;17.40;99.90;;;;;;5042931;28;20037;-65
2023/06/11 03:10:36;;;;;;;17.08;11.60;;;17.40;99.90;;;;;;5043864;28;20047;-65
2023/06/11 03:13:02;;;;;;;14.35;11.43;;;17.40;99.90;;;;;;5043645;28;20037;-65
2023/06/11 03:15:28;;;;;;;16.70;11.95;;;17.40;99.90;;;;;;5043454;28;20049;-63
2023/06/11 03:17:54;;;;;;;15.27;11.00;;;17.30;99.90;;;;;;5059564;28;20091;-63
2023/06/11 03:20:19;;;;;;;17.15;11.77;;;17.30;99.90;;;;;;5043920;28;20076;-66
2023/06/11 03:22:45;;;;;;;18.13;12.00;;;17.20;99.90;;;;;;5042228;28;20048;-64
2023/06/11 03:25:11;;;;;;;18.00;11.77;;;17.20;99.90;;;;;;5043226;28;20072;-65
2023/06/11 03:27:37;;;;;;;15.50;11.27;;;17.10;99.90;;;;;;5043371;28;20040;-65
2023/06/11 03:30:03;;;;;;;19.25;12.10;;;17.10;99.90;;;;;;5043947;28;20053;-64
2023/06/11 03:32:29;;;;;;;17.08;12.48;;;17.10;99.90;;;;;;5043296;28;20532;-66
2023/06/11 03:34:54;;;;;;;16.92;12.35;;;17.00;99.90;;;;;;5042939;28;20071;-66
2023/06/11 03:37:20;;;;;;;17.08;11.68;;;17.10;99.90;;;;;;5060148;28;20122;-65
2023/06/11 03:39:46;;;;;;;16.35;12.43;;;17.10;99.90;;;;;;5043810;28;20072;-66
2023/06/11 03:42:11;;;;;;;15.48;12.77;;;17.20;99.90;;;;;;5043278;28;20099;-65
2023/06/11 03:44:37;;;;;;;16.20;12.10;;;17.20;99.90;;;;;;5042878;28;20507;-65
2023/06/11 03:47:03;;;;;;;15.73;12.40;;;17.30;99.90;;;;;;5059778;28;20116;-64
2023/06/11 03:49:38;;;;;;;16.13;12.05;;;17.30;99.90;;;;;;5043576;28;20127;-63
2023/06/11 03:52:04;;;;;;;16.75;11.68;;;17.30;99.90;;;;;;5041616;28;20045;-65
2023/06/11 03:54:29;;;;;;;15.15;12.15;;;17.30;99.90;;;;;;5026168;28;20047;-64
2023/06/11 03:56:55;;;;;;;16.42;11.43;;;17.40;99.90;;;;;;5043208;28;20040;-63
2023/06/11 03:59:21;;;;;;;17.88;11.85;;;17.50;99.90;;;;;;5043437;28;20139;-64
2023/06/11 04:01:46;;;;;;;13.93;11.75;;;17.60;99.90;;;;;;5042966;28;20070;-65
2023/06/11 04:04:12;;;;;;;16.83;11.68;;;17.60;99.90;;;;;;5042917;28;20086;-66
2023/06/11 04:06:39;;;;;;;16.80;12.25;;;17.80;99.90;;;;;;5034630;28;20045;-65
2023/06/11 04:09:06;;;;;;;17.85;11.93;;;18.00;99.90;;;;;;5042813;28;20098;-66
2023/06/11 04:11:31;;;;;;;16.25;12.13;;;18.10;99.90;;;;;;5043057;28;20389;-66
2023/06/11 04:13:57;;;;;;;16.52;11.57;;;18.30;99.90;;;;;;5043244;28;20346;-67
2023/06/11 04:16:23;;;;;;;14.95;11.68;;;18.50;99.90;;;;;;5043636;28;20534;-66
2023/06/11 04:18:48;;;;;;;15.23;11.75;;;18.70;99.90;;;;;;5042864;28;20130;-66
2023/06/11 04:21:14;;;;;;;14.88;12.23;;;18.90;99.90;;;;;;5025886;28;20043;-67
2023/06/11 04:23:40;;;;;;;16.98;12.57;;;19.00;99.90;;;;;;5041819;28;20036;-64
2023/06/11 04:26:10;;;;;;;17.20;12.27;;;19.20;99.90;;;;;;5042630;28;20052;-64
2023/06/11 04:28:40;;;;;;;14.55;11.57;;;19.30;99.90;;;;;;5043211;28;20095;-64
2023/06/11 04:31:06;;;;;;;17.98;11.52;;;19.40;99.90;;;;;;5042339;28;20055;-67
2023/06/11 04:33:33;;;;;;;17.95;11.57;;;19.40;99.90;;;;;;5042135;28;20041;-65
2023/06/11 04:36:09;;;;;;;14.18;11.70;;;19.50;99.90;;;;;;5043798;28;20088;-65
2023/06/11 04:38:37;;;;;;;15.48;10.90;;;19.60;99.90;;;;;;5042165;28;20575;-66
2023/06/11 04:41:06;;;;;;;14.57;11.70;;;19.70;99.90;;;;;;5043026;28;20576;-66
2023/06/11 04:43:36;;;;;;;15.35;10.98;;;19.90;99.90;;;;;;5052665;28;20475;-64
2023/06/11 04:46:03;;;;;;;15.07;11.30;;;20.10;99.90;;;;;;5045958;28;20045;-64
2023/06/11 04:48:33;;;;;;;16.90;11.40;;;20.40;99.90;;;;;;5045848;28;20102;-65
2023/06/11 04:51:02;;;;;;;14.63;11.25;;;20.50;99.90;;;;;;5048081;28;20210;-65
2023/06/11 04:53:29;;;;;;;17.85;10.57;;;20.60;99.90;;;;;;5059141;28;20148;-65
2023/06/11 04:55:57;;;;;;;15.23;11.27;;;20.70;99.90;;;;;;5040550;28;20838;-65
2023/06/11 04:58:24;;;;;;;15.90;10.82;;;20.80;99.90;;;;;;5042769;28;20118;-65
2023/06/11 05:00:51;;;;;;;13.48;10.20;;;21.00;99.90;;;;;;5042223;28;20045;-63
2023/06/11 05:03:17;;;;;;;13.25;10.82;;;21.10;99.90;;;;;;5043212;28;20055;-65
2023/06/11 05:05:49;;;;;;;13.02;10.07;;;21.10;99.90;;;;;;5041339;28;20045;-68
2023/06/11 05:08:17;;;;;;;14.52;10.23;;;21.00;99.90;;;;;;5028739;28;20047;-63
2023/06/11 05:10:43;;;;;;;13.48;9.77;;;21.10;99.90;;;;;;5046323;28;20102;-66
2023/06/11 05:13:09;;;;;;;16.65;10.10;;;21.20;99.90;;;;;;5046005;28;20582;-66
2023/06/11 05:15:35;;;;;;;15.10;9.70;;;21.30;99.90;;;;;;5045873;28;20049;-66
2023/06/11 05:18:00;;;;;;;14.13;9.77;;;21.40;99.90;;;;;;5029022;28;20036;-66
2023/06/11 05:20:27;;;;;;;16.20;9.40;;;21.40;99.90;;;;;;5028329;28;20041;-67
2023/06/11 05:22:58;;;;;;;14.30;10.07;;;21.40;99.90;;;;;;5044965;28;20040;-66
2023/06/11 05:25:27;;;;;;;13.23;9.55;;;21.50;99.90;;;;;;5065071;28;20044;-65
2023/06/11 05:27:55;;;;;;;15.20;10.02;;;21.90;99.90;;;;;;5049231;28;20048;-63
2023/06/11 05:30:24;;;;;;;15.38;9.35;;;22.10;99.90;;;;;;5030636;28;20053;-65
2023/06/11 05:32:55;;;;;;;14.88;9.70;;;22.60;99.90;;;;;;5045415;28;20037;-65
2023/06/11 05:35:20;;;;;;;13.75;8.90;;;22.80;99.90;;;;;;5044621;28;20702;-66
2023/06/11 05:37:47;;;;;;;16.50;9.98;;;23.10;99.90;;;;;;5044301;28;20041;-62
2023/06/11 05:40:13;;;;;;;12.80;9.60;;;23.20;99.90;;;;;;5047062;28;20048;-64
2023/06/11 05:42:38;;;;;;;15.00;9.77;;;22.90;99.90;;;;;;5029222;28;20367;-68
2023/06/11 05:45:06;;;;;;;13.85;9.30;;;22.70;99.90;;;;;;5045262;28;20030;-65
2023/06/11 05:47:32;;;;;;;16.95;9.18;;;22.70;99.90;;;;;;5045399;28;20102;-67
2023/06/11 05:49:58;;;;;;;12.52;9.38;;;22.60;99.90;;;;;;5045354;28;20037;-65
2023/06/11 05:52:24;;;;;;;15.07;9.30;;;22.80;99.90;;;;;;5042019;28;20044;-67
2023/06/11 05:54:50;;;;;;;15.50;9.70;;;22.80;99.90;;;;;;5028339;28;20070;-64
2023/06/11 05:57:24;;;;;;;15.60;9.80;;;22.80;99.90;;;;;;5045176;28;20661;-65
2023/06/11 05:59:50;;;;;;;14.82;9.48;;;22.80;99.90;;;;;;5045280;28;20088;-68
2023/06/11 06:02:16;;;;;;;15.65;10.43;;;22.90;99.90;;;;;;5045194;28;20128;-65
2023/06/11 06:04:41;;;;;;;14.70;9.23;;;23.00;99.90;;;;;;5028387;28;20559;-66
2023/06/11 06:07:07;;;;;;;15.15;9.43;;;23.20;99.60;;;;;;5042500;28;20037;-66
2023/06/11 06:09:34;;;;;;;13.38;9.77;;;23.40;99.60;;;;;;5045280;28;20186;-65
2023/06/11 06:12:00;;;;;;;15.93;9.90;;;23.30;99.20;;;;;;5045518;28;20048;-67
2023/06/11 06:14:26;;;;;;;16.88;10.00;;;23.20;99.40;;;;;;5028121;28;20135;-69
2023/06/11 06:16:52;;;;;;;18.75;10.30;;;23.20;99.40;;;;;;5044256;28;20132;-69
2023/06/11 06:19:17;;;;;;;18.63;9.25;;;23.20;99.50;;;;;;5043946;28;20049;-68
2023/06/11 06:21:43;;;;;;;12.98;9.23;;;23.20;99.50;;;;;;5045316;28;20469;-67
2023/06/11 06:24:11;;;;;;;14.23;9.40;;;23.30;99.60;;;;;;5045102;28;20106;-64
2023/06/11 06:26:40;;;;;;;13.02;9.55;;;23.40;99.40;;;;;;5044672;28;20707;-66
2023/06/11 06:29:07;;;;;;;18.50;9.07;;;23.40;99.30;;;;;;5044660;28;20071;-67
2023/06/11 06:31:33;;;;;;;12.90;9.38;;;23.50;99.40;;;;;;5044510;28;20037;-70
2023/06/11 06:34:02;;;;;;;18.13;9.95;;;23.50;99.30;;;;;;5044497;28;20553;-68
2023/06/11 06:36:28;;;;;;;14.90;9.77;;;23.60;99.20;;;;;;5026921;28;20554;-67
2023/06/11 06:38:54;;;;;;;15.13;9.25;;;23.40;99.30;;;;;;5043738;28;20062;-69
2023/06/11 06:41:19;;;;;;;17.23;9.95;;;23.50;99.40;;;;;;5044531;28;20041;-67
2023/06/11 06:43:45;;;;;;;17.48;9.18;;;23.50;99.30;;;;;;5044237;28;20037;-68
2023/06/11 06:46:11;;;;;;;16.77;9.77;;;23.50;99.30;;;;;;5044125;28;20041;-67
2023/06/11 06:48:36;;;;;;;16.83;10.30;;;23.60;99.10;;;;;;5043828;28;20557;-69
2023/06/11 06:51:02;;;;;;;14.20;9.85;;;23.70;99.00;;;;;;5046165;28;20185;-65
2023/06/11 06:53:28;;;;;;;15.68;9.82;;;23.60;99.10;;;;;;5062464;28;20041;-66
2023/06/11 06:55:54;;;;;;;13.98;9.27;;;23.70;99.10;;;;;;5044467;28;20052;-68
2023/06/11 06:58:20;;;;;;;15.73;9.73;;;23.70;98.90;;;;;;5043862;28;20053;-66
2023/06/11 07:00:46;;;;;;;14.15;8.55;;;23.70;99.00;;;;;;5044322;28;20520;-68
2023/06/11 07:03:14;;;;;;;13.13;9.55;;;23.80;99.00;;;;;;5043153;28;20283;-66
2023/06/11 07:05:44;;;;;;;12.98;9.52;;;23.90;98.80;;;;;;5042750;28;20048;-68
2023/06/11 07:08:12;;;;;;;14.23;9.57;;;24.00;98.70;;;;;;5043489;28;20116;-64
2023/06/11 07:10:40;;;;;;;12.35;9.45;;;24.00;98.80;;;;;;5044375;28;20080;-68
2023/06/11 07:13:07;;;;;;;14.73;8.57;;;24.00;98.70;;;;;;5043139;28;20082;-67
2023/06/11 07:15:33;;;;;;;13.15;9.48;;;24.10;99.00;;;;;;5043627;28;20059;-64
2023/06/11 07:17:59;;;;;;;11.90;8.38;;;24.20;98.50;;;;;;5043401;28;20041;-65
2023/06/11 07:20:24;;;;;;;13.75;9.07;;;24.30;98.80;;;;;;5043244;28;20699;-70
2023/06/11 07:22:50;;;;;;;18.17;9.20;;;24.40;98.60;;;;;;5042138;28;20095;-65
2023/06/11 07:25:16;;;;;;;11.63;8.75;;;24.30;98.30;;;;;;5043238;28;20047;-65
2023/06/11 07:27:42;;;;;;;13.45;8.60;;;24.30;98.10;;;;;;5043503;28;20549;-66
2023/06/11 07:30:09;;;;;;;12.63;8.57;;;24.30;98.40;;;;;;5044113;28;20047;-68
2023/06/11 07:32:36;;;;;;;15.00;8.55;;;24.40;98.40;;;;;;5043030;28;20040;-68
2023/06/11 07:35:01;;;;;;;13.63;9.05;;;24.50;98.20;;;;;;5043174;28;20622;-65
2023/06/11 07:37:27;;;;;;;15.70;9.05;;;24.50;97.80;;;;;;5041648;28;20045;-66
2023/06/11 07:39:56;;;;;;;15.63;8.80;;;24.50;97.80;;;;;;5027688;28;20485;-67
2023/06/11 07:42:21;;;;;;;14.65;8.85;;;24.60;97.90;;;;;;5043940;28;20048;-67
2023/06/11 07:44:47;;;;;;;14.50;8.75;;;24.70;97.80;;;;;;5042972;28;20597;-67
2023/06/11 07:47:12;;;;;;;12.25;8.15;;;24.70;97.80;;;;;;5052571;28;20130;-66
2023/06/11 07:49:38;;;;;;;15.25;9.25;;;24.80;97.60;;;;;;5061722;28;20040;-65
2023/06/11 07:52:04;;;;;;;17.50;8.55;;;24.70;97.40;;;;;;5043394;28;20094;-68
2023/06/11 07:54:30;;;;;;;12.80;8.77;;;24.60;97.50;;;;;;5059548;28;20101;-64
2023/06/11 07:56:56;;;;;;;13.88;9.10;;;24.70;97.50;;;;;;5046267;28;20040;-64
2023/06/11 07:59:21;;;;;;;13.85;9.05;;;24.80;97.30;;;;;;5060225;28;20110;-66
2023/06/11 08:01:47;;;;;;;15.93;9.82;;;24.70;96.90;;;;;;5062022;28;20116;-65
2023/06/11 08:04:13;;;;;;;12.13;8.93;;;24.60;96.90;;;;;;5062838;28;20074;-68
2023/06/11 08:06:38;;;;;;;17.90;9.43;;;24.60;97.20;;;;;;5059143;28;20047;-66
2023/06/11 08:09:04;;;;;;;11.73;8.40;;;24.60;97.40;;;;;;5062916;28;20040;-68
2023/06/11 08:11:29;;;;;;;15.82;8.80;;;24.70;97.80;;;;;;5042715;28;20037;-64
2023/06/11 08:13:55;;;;;;;16.67;8.27;;;25.00;97.30;;;;;;5042849;28;20080;-66
2023/06/11 08:16:21;;;;;;;11.63;8.60;;;25.10;97.60;;;;;;5043279;28;20140;-65
2023/06/11 08:18:46;;;;;;;11.95;8.13;;;25.30;97.30;;;;;;5043479;28;20095;-66
2023/06/11 08:21:12;;;;;;;15.52;8.40;;;25.50;97.10;;;;;;5049837;28;20756;-66
2023/06/11 08:23:39;;;;;;;13.88;8.65;;;25.60;96.90;;;;;;5061883;28;20254;-66
2023/06/11 08:26:05;;;;;;;15.55;8.50;;;25.70;96.80;;;;;;5063055;28;20539;-64
2023/06/11 08:28:31;;;;;;;14.48;8.52;;;25.70;96.40;;;;;;5054350;28;20043;-63
2023/06/11 08:30:57;;;;;;;13.77;9.07;;;25.80;96.40;;;;;;5049339;28;20036;-65
2023/06/11 08:33:22;;;;;;;11.75;8.20;;;25.80;96.20;;;;;;5040471;28;20036;-67
2023/06/11 08:35:48;;;;;;;12.50;7.97;;;25.80;96.50;;;;;;5039810;28;20033;-66
2023/06/11 08:38:14;;;;;;;15.80;8.50;;;25.90;96.40;;;;;;5057048;28;20265;-67
2023/06/11 08:40:41;;;;;;;11.38;8.48;;;26.00;96.20;;;;;;5054546;28;20048;-66
2023/06/11 08:43:08;;;;;;;12.25;7.30;;;26.00;96.70;;;;;;5061397;28;20083;-66
2023/06/11 08:45:33;;;;;;;14.45;9.80;;;26.00;96.40;;;;;;5061990;28;20044;-66
2023/06/11 08:48:02;;;;;;;15.93;8.45;;;26.10;95.80;;;;;;5060803;28;20032;-68
2023/06/11 08:50:31;;;;;;;13.18;7.82;;;26.10;95.90;;;;;;5042964;28;20041;-66
2023/06/11 08:53:00;;;;;;;12.38;8.05;;;26.20;95.80;;;;;;5058684;28;20123;-66
2023/06/11 08:55:26;;;;;;;10.95;7.80;;;26.20;95.90;;;;;;5076106;28;20036;-66
2023/06/11 08:57:52;;;;;;;10.88;7.38;;;26.30;95.60;;;;;;5059737;28;20571;-67
2023/06/11 09:00:18;;;;;;;10.57;7.53;;;26.40;95.50;;;;;;5061530;28;20052;-67
2023/06/11 09:02:45;;;;;;;12.60;8.32;;;26.50;95.60;;;;;;5061375;28;20051;-67
2023/06/11 09:05:11;;;;;;;10.45;7.65;;;26.60;95.40;;;;;;5044601;28;20036;-67
2023/06/11 09:07:37;;;;;;;11.43;7.40;;;26.70;95.50;;;;;;5061474;28;20434;-65
2023/06/11 09:10:10;;;;;;;12.52;7.75;;;26.90;95.50;;;;;;5062473;28;20041;-65
2023/06/11 09:12:36;;;;;;;11.40;7.60;;;27.00;94.90;;;;;;5044113;28;20036;-67
2023/06/11 09:15:04;;;;;;;17.23;7.72;;;27.10;94.80;;;;;;5061190;28;20041;-67
2023/06/11 09:17:37;;;;;;;12.95;7.03;;;27.20;94.70;;;;;;5063396;28;20063;-67
2023/06/11 09:20:10;;;;;;;12.07;8.07;;;27.10;95.00;;;;;;5059375;28;20040;-64
2023/06/11 09:22:37;;;;;;;13.15;7.18;;;27.20;94.80;;;;;;5058063;28;20033;-67
2023/06/11 09:25:09;;;;;;;11.55;8.07;;;27.20;94.40;;;;;;5060119;28;20055;-67
2023/06/11 09:27:36;;;;;;;11.65;7.10;;;27.30;94.10;;;;;;5062309;28;20049;-66
2023/06/11 09:30:18;;;;;;;13.02;7.72;;;27.30;94.00;;;;;;5059723;28;20923;-66
2023/06/11 09:32:45;;;;;;;11.73;7.43;;;27.40;94.10;;;;;;5062539;28;20163;-66
2023/06/11 09:35:13;;;;;;;9.90;7.22;;;27.50;94.20;;;;;;5059352;28;20056;-65
2023/06/11 09:37:46;;;;;;;11.63;7.32;;;27.50;93.80;;;;;;5061620;28;20052;-67
2023/06/11 09:40:16;;;;;;;12.20;8.20;;;27.50;93.60;;;;;;5056850;28;20044;-66
2023/06/11 09:42:47;;;;;;;11.07;7.55;;;27.50;93.20;;;;;;5061862;28;20071;-65
2023/06/11 09:45:19;;;;;;;11.35;7.32;;;27.60;93.70;;;;;;5047022;28;20127;-67
2023/06/11 09:47:46;;;;;;;11.68;7.05;;;27.70;93.40;;;;;;5060628;28;20063;-64
2023/06/11 09:50:16;;;;;;;11.38;7.07;;;27.80;93.50;;;;;;5060624;28;20048;-67
2023/06/11 09:52:43;;;;;;;13.10;7.25;;;27.80;92.90;;;;;;5091888;28;20037;-67
2023/06/11 09:55:10;;;;;;;9.63;7.30;;;27.80;93.10;;;;;;5045313;28;20408;-67
2023/06/11 09:57:38;;;;;;;11.32;8.25;;;27.80;92.80;;;;;;5045110;28;20438;-68
2023/06/11 10:00:08;;;;;;;12.65;7.60;;;27.80;92.70;;;;;;5065926;28;20059;-63
2023/06/11 10:02:34;;;;;;;13.10;7.55;;;27.70;92.40;;;;;;5069584;28;20036;-67
2023/06/11 10:05:00;;;;;;;10.82;7.90;;;27.70;92.50;;;;;;5064513;28;20450;-68
2023/06/11 10:07:27;;;;;;;10.05;7.28;;;27.60;92.30;;;;;;5063943;28;20064;-64
2023/06/11 10:09:53;;;;;;;11.00;7.15;;;27.70;93.00;;;;;;5095404;28;20040;-66
2023/06/11 10:12:22;;;;;;;13.05;7.30;;;27.90;93.40;;;;;;5047532;28;20446;-67
2023/06/11 10:14:55;;;;;;;13.93;8.13;;;28.10;93.10;;;;;;5046615;28;20194;-65
2023/06/11 10:17:24;;;;;;;9.82;7.30;;;28.10;92.10;;;;;;5063931;28;20123;-64
2023/06/11 10:19:51;;;;;;;13.18;6.95;;;28.00;91.90;;;;;;5080851;28;20441;-63
2023/06/11 10:22:21;;;;;;;10.35;6.45;;;28.00;91.90;;;;;;5060107;28;20045;-67
2023/06/11 10:25:00;;;;;;;11.45;7.03;;;28.20;92.00;;;;;;5065289;28;20051;-64
2023/06/11 10:27:46;;;;;;;15.18;6.88;;;28.20;91.30;;;;;;5048916;28;20547;-65
2023/06/11 10:30:23;;;;;;;9.98;6.47;;;28.30;91.50;;;;;;5053520;28;20055;-63
2023/06/11 10:32:49;;;;;;;10.55;6.78;;;28.40;91.20;;;;;;5076333;28;20080;-65
2023/06/11 10:35:22;;;;;;;13.35;6.72;;;28.50;91.20;;;;;;5044184;28;20052;-67
2023/06/11 10:37:48;;;;;;;9.55;6.20;;;28.50;90.40;;;;;;5043335;28;20539;-65
2023/06/11 10:40:14;;;;;;;10.93;6.68;;;28.50;90.40;;;;;;5044856;28;20434;-66
2023/06/11 10:42:42;;;;;;;8.88;6.35;;;28.50;90.30;;;;;;5044638;28;20442;-65
2023/06/11 10:45:12;;;;;;;11.20;6.47;;;28.60;90.30;;;;;;5045458;28;20576;-63
2023/06/11 10:47:42;;;;;;;12.38;6.63;;;28.70;89.60;;;;;;5049463;28;20043;-64
2023/06/11 10:50:15;;;;;;;10.35;5.90;;;28.80;88.00;;;;;;5064162;28;20041;-65
2023/06/11 10:52:51;;;;;;;8.25;5.85;;;28.90;86.90;;;;;;5041946;28;20048;-63
2023/06/11 10:55:20;;;;;;;9.48;5.70;;;29.00;87.80;;;;;;5060305;28;20098;-66
2023/06/11 10:57:46;;;;;;;11.23;5.95;;;29.00;87.20;;;;;;5046778;28;20052;-63
2023/06/11 11:00:13;;;;;;;10.15;5.95;;;29.10;86.50;;;;;;5044122;28;20328;-63
2023/06/11 11:02:39;;;;;;;8.93;5.90;;;29.10;83.80;;;;;;5059414;28;20056;-62
2023/06/11 11:05:09;;;;;;;8.70;5.90;;;29.10;83.90;;;;;;5043160;28;20048;-66
2023/06/11 11:07:34;;;;;;;8.32;5.50;;;29.00;81.80;;;;;;5041624;28;20702;-66
2023/06/11 11:10:01;;;;;;;10.52;6.03;;;28.90;83.10;;;;;;5044366;28;20044;-65
2023/06/11 11:12:33;;;;;;;8.00;5.60;;;29.00;83.50;;;;;;5049484;28;20075;-66
2023/06/11 11:14:59;;;;;;;8.10;5.93;;;29.20;83.10;;;;;;5060376;28;20066;-65
2023/06/11 11:17:25;;;;;;;10.48;5.85;;;29.30;82.30;;;;;;5054461;28;20524;-65
2023/06/11 11:19:51;;;;;;;9.57;5.93;;;29.40;81.50;;;;;;5033328;28;20082;-63
2023/06/11 11:22:16;;;;;;;17.85;5.90;;;29.40;81.00;;;;;;5050599;28;20093;-67
2023/06/11 11:24:42;;;;;;;11.77;5.93;;;29.60;79.50;;;;;;5061385;28;20033;-65
2023/06/11 11:27:08;;;;;;;8.13;5.50;;;29.70;78.00;;;;;;5061910;28;20371;-67
2023/06/11 11:29:33;;;;;;;8.38;5.30;;;29.70;76.40;;;;;;5071855;28;20032;-63
2023/06/11 11:31:59;;;;;;;8.77;5.50;;;29.70;75.60;;;;;;5054376;28;20036;-64
2023/06/11 11:34:27;;;;;;;9.10;5.35;;;29.70;76.30;;;;;;5069116;28;20032;-64
2023/06/11 11:36:55;;;;;;;9.68;5.53;;;29.70;75.80;;;;;;5042858;28;20036;-67
2023/06/11 11:39:20;;;;;;;8.10;6.10;;;29.70;74.90;;;;;;5073967;28;20040;-64
2023/06/11 11:41:50;;;;;;;9.68;5.68;;;29.70;74.50;;;;;;5068607;28;20445;-64
2023/06/11 11:44:17;;;;;;;8.20;5.75;;;29.80;74.90;;;;;;5057017;28;20044;-65
2023/06/11 11:46:43;;;;;;;8.40;5.22;;;29.80;74.10;;;;;;5049799;28;20079;-68
2023/06/11 11:49:12;;;;;;;12.98;5.65;;;29.70;73.80;;;;;;5050995;28;20072;-62
2023/06/11 11:51:45;;;;;;;9.10;5.97;;;29.70;74.50;;;;;;5069610;28;20488;-65
2023/06/11 11:54:15;;;;;;;10.97;5.97;;;29.80;74.20;;;;;;5042291;28;20098;-63
2023/06/11 11:56:41;;;;;;;12.27;5.88;;;29.90;72.80;;;;;;5049709;28;20465;-67
2023/06/11 11:59:39;;;;;;;13.27;6.15;;;29.90;72.10;;;;;;5065887;28;20059;-67
2023/06/11 12:02:06;;;;;;;8.98;5.90;;;29.80;69.30;;;;;;5036206;28;20048;-65
2023/06/11 12:04:46;;;;;;;10.20;5.68;;;29.90;71.00;;;;;;5061012;28;20036;-65
2023/06/11 12:07:14;;;;;;;8.68;5.30;;;30.10;69.70;;;;;;5059687;28;20560;-65
2023/06/11 12:09:41;;;;;;;9.48;5.20;;;30.30;70.40;;;;;;5046918;28;20728;-65
2023/06/11 12:12:08;;;;;;;8.85;5.57;;;30.40;69.80;;;;;;5044302;28;20519;-67
2023/06/11 12:14:35;;;;;;;11.98;5.63;;;30.50;67.90;;;;;;5043957;28;20045;-67
2023/06/11 12:17:00;;;;;;;9.10;5.70;;;30.60;67.80;;;;;;5052485;28;20040;-64
2023/06/11 12:19:29;;;;;;;10.10;5.00;;;30.80;68.00;;;;;;5046666;28;20067;-65
2023/06/11 12:21:56;;;;;;;11.23;5.15;;;30.80;66.30;;;;;;5045402;28;20045;-65
2023/06/11 12:24:22;;;;;;;8.45;5.10;;;30.90;66.60;;;;;;5047192;28;20503;-64
2023/06/11 12:26:49;;;;;;;9.40;5.72;;;30.90;65.80;;;;;;5058804;28;20068;-67
2023/06/11 12:29:16;;;;;;;9.88;5.93;;;30.90;65.20;;;;;;5054178;28;20076;-66
2023/06/11 12:31:42;;;;;;;8.00;5.50;;;30.90;66.80;;;;;;5047060;28;20132;-64
2023/06/11 12:34:14;;;;;;;9.65;5.60;;;31.00;65.60;;;;;;5046904;28;20041;-70
2023/06/11 12:36:41;;;;;;;12.63;5.07;;;30.90;64.80;;;;;;5046053;28;20090;-64